Terminal Aerodrome Forecast
Issued by NWS

Home | Current Version | Previous Version | Text Only | Print | Product List | Glossary Off
Versions: 1 2 3 4 5 6 7 8 9 10 11 12 13 14 15 16 17 18 19

000
FTUS41 KCLE 292300
TAFFDY
TAF
KFDY 292337Z 3000/3024 28006KT P6SM VCSH BKN060
     FM300200 26004KT P6SM FEW040
     FM301600 26005KT P6SM VCSH BKN045=

USA.gov is the U.S. government's official web portal to all federal, state and local government web resources and services.